sensor_id;sensor_type;location;lat;lon;timestamp;P1;durP1;ratioP1;P2;durP2;ratioP2
9643;SDS011;4860;50.900;4.720;2023-04-15T00:00:21;0.30;;;0.30;;
9643;SDS011;4860;50.900;4.720;2023-04-15T00:02:48;0.30;;;0.30;;
9643;SDS011;4860;50.900;4.720;2023-04-15T00:05:14;0.30;;;0.30;;
9643;SDS011;4860;50.900;4.720;2023-04-15T00:07:40;0.30;;;0.30;;
9643;SDS011;4860;50.900;4.720;2023-04-15T00:10:07;0.30;;;0.30;;
9643;SDS011;4860;50.900;4.720;2023-04-15T00:12:33;0.20;;;0.20;;
9643;SDS011;4860;50.900;4.720;2023-04-15T00:14:59;0.30;;;0.30;;
9643;SDS011;4860;50.900;4.720;2023-04-15T00:17:25;0.30;;;0.30;;
9643;SDS011;4860;50.900;4.720;2023-04-15T00:19:52;0.30;;;0.30;;
9643;SDS011;4860;50.900;4.720;2023-04-15T00:22:18;0.30;;;0.30;;
9643;SDS011;4860;50.900;4.720;2023-04-15T00:24:44;0.30;;;0.30;;
9643;SDS011;4860;50.900;4.720;2023-04-15T00:27:11;0.30;;;0.30;;
9643;SDS011;4860;50.900;4.720;2023-04-15T00:29:37;0.30;;;0.30;;
9643;SDS011;4860;50.900;4.720;2023-04-15T00:32:03;0.20;;;0.20;;
9643;SDS011;4860;50.900;4.720;2023-04-15T00:34:29;0.20;;;0.20;;
9643;SDS011;4860;50.900;4.720;2023-04-15T00:36:55;0.30;;;0.30;;
9643;SDS011;4860;50.900;4.720;2023-04-15T00:39:21;0.20;;;0.20;;
9643;SDS011;4860;50.900;4.720;2023-04-15T00:41:50;0.30;;;0.30;;
9643;SDS011;4860;50.900;4.720;2023-04-15T00:44:17;0.30;;;0.30;;
9643;SDS011;4860;50.900;4.720;2023-04-15T00:46:43;0.30;;;0.30;;
9643;SDS011;4860;50.900;4.720;2023-04-15T00:49:10;0.30;;;0.30;;
9643;SDS011;4860;50.900;4.720;2023-04-15T00:51:37;0.30;;;0.30;;
9643;SDS011;4860;50.900;4.720;2023-04-15T00:54:03;0.30;;;0.30;;
9643;SDS011;4860;50.900;4.720;2023-04-15T00:56:32;0.20;;;0.20;;
9643;SDS011;4860;50.900;4.720;2023-04-15T00:59:00;0.38;;;0.38;;
9643;SDS011;4860;50.900;4.720;2023-04-15T01:01:26;0.30;;;0.30;;
9643;SDS011;4860;50.900;4.720;2023-04-15T01:03:54;0.22;;;0.22;;
9643;SDS011;4860;50.900;4.720;2023-04-15T01:06:24;0.30;;;0.30;;
9643;SDS011;4860;50.900;4.720;2023-04-15T01:08:51;0.30;;;0.30;;
9643;SDS011;4860;50.900;4.720;2023-04-15T01:11:18;0.20;;;0.20;;
9643;SDS011;4860;50.900;4.720;2023-04-15T01:13:45;0.20;;;0.20;;
9643;SDS011;4860;50.900;4.720;2023-04-15T01:16:14;0.20;;;0.20;;
9643;SDS011;4860;50.900;4.720;2023-04-15T01:18:41;0.30;;;0.30;;
9643;SDS011;4860;50.900;4.720;2023-04-15T01:21:07;0.20;;;0.20;;
9643;SDS011;4860;50.900;4.720;2023-04-15T01:23:36;0.25;;;0.25;;
9643;SDS011;4860;50.900;4.720;2023-04-15T01:26:03;0.20;;;0.20;;
9643;SDS011;4860;50.900;4.720;2023-04-15T01:28:33;0.30;;;0.30;;
9643;SDS011;4860;50.900;4.720;2023-04-15T01:31:06;0.30;;;0.30;;
9643;SDS011;4860;50.900;4.720;2023-04-15T01:33:36;0.22;;;0.22;;
9643;SDS011;4860;50.900;4.720;2023-04-15T01:36:03;0.30;;;0.30;;
9643;SDS011;4860;50.900;4.720;2023-04-15T01:38:29;0.30;;;0.30;;
9643;SDS011;4860;50.900;4.720;2023-04-15T01:40:56;0.30;;;0.30;;
9643;SDS011;4860;50.900;4.720;2023-04-15T01:43:23;0.30;;;0.30;;
9643;SDS011;4860;50.900;4.720;2023-04-15T01:45:50;0.20;;;0.20;;
9643;SDS011;4860;50.900;4.720;2023-04-15T01:48:16;0.20;;;0.20;;
9643;SDS011;4860;50.900;4.720;2023-04-15T01:50:43;0.30;;;0.30;;
9643;SDS011;4860;50.900;4.720;2023-04-15T01:53:09;0.30;;;0.30;;
9643;SDS011;4860;50.900;4.720;2023-04-15T01:55:35;0.30;;;0.30;;
9643;SDS011;4860;50.900;4.720;2023-04-15T01:58:04;0.30;;;0.30;;
9643;SDS011;4860;50.900;4.720;2023-04-15T02:00:31;0.30;;;0.30;;
9643;SDS011;4860;50.900;4.720;2023-04-15T02:02:57;0.20;;;0.20;;
9643;SDS011;4860;50.900;4.720;2023-04-15T02:05:24;0.25;;;0.25;;
9643;SDS011;4860;50.900;4.720;2023-04-15T02:07:50;0.30;;;0.30;;
9643;SDS011;4860;50.900;4.720;2023-04-15T02:10:16;0.30;;;0.30;;
9643;SDS011;4860;50.900;4.720;2023-04-15T02:12:42;0.30;;;0.30;;
9643;SDS011;4860;50.900;4.720;2023-04-15T02:15:09;0.30;;;0.30;;
9643;SDS011;4860;50.900;4.720;2023-04-15T02:17:35;0.30;;;0.30;;
9643;SDS011;4860;50.900;4.720;2023-04-15T02:20:02;0.30;;;0.30;;
9643;SDS011;4860;50.900;4.720;2023-04-15T02:22:33;0.22;;;0.22;;
9643;SDS011;4860;50.900;4.720;2023-04-15T02:25:03;0.30;;;0.30;;
9643;SDS011;4860;50.900;4.720;2023-04-15T02:27:29;0.30;;;0.30;;
9643;SDS011;4860;50.900;4.720;2023-04-15T02:29:55;0.30;;;0.30;;
9643;SDS011;4860;50.900;4.720;2023-04-15T02:32:21;0.22;;;0.22;;
9643;SDS011;4860;50.900;4.720;2023-04-15T02:34:48;0.30;;;0.30;;
9643;SDS011;4860;50.900;4.720;2023-04-15T02:37:15;0.30;;;0.30;;
9643;SDS011;4860;50.900;4.720;2023-04-15T02:39:43;0.30;;;0.30;;
9643;SDS011;4860;50.900;4.720;2023-04-15T02:42:09;0.30;;;0.30;;
9643;SDS011;4860;50.900;4.720;2023-04-15T02:44:35;0.30;;;0.30;;
9643;SDS011;4860;50.900;4.720;2023-04-15T02:47:05;0.30;;;0.30;;
9643;SDS011;4860;50.900;4.720;2023-04-15T02:49:31;0.20;;;0.20;;
9643;SDS011;4860;50.900;4.720;2023-04-15T02:51:57;0.30;;;0.30;;
9643;SDS011;4860;50.900;4.720;2023-04-15T02:54:24;0.30;;;0.30;;
9643;SDS011;4860;50.900;4.720;2023-04-15T02:56:52;0.20;;;0.20;;
9643;SDS011;4860;50.900;4.720;2023-04-15T02:59:21;0.30;;;0.30;;
9643;SDS011;4860;50.900;4.720;2023-04-15T03:01:47;0.30;;;0.30;;
9643;SDS011;4860;50.900;4.720;2023-04-15T03:04:13;0.20;;;0.20;;
9643;SDS011;4860;50.900;4.720;2023-04-15T03:06:40;0.30;;;0.30;;
9643;SDS011;4860;50.900;4.720;2023-04-15T03:09:06;0.30;;;0.30;;
9643;SDS011;4860;50.900;4.720;2023-04-15T03:11:34;0.30;;;0.30;;
9643;SDS011;4860;50.900;4.720;2023-04-15T03:14:04;0.30;;;0.30;;
9643;SDS011;4860;50.900;4.720;2023-04-15T03:16:30;0.30;;;0.30;;
9643;SDS011;4860;50.900;4.720;2023-04-15T03:18:57;0.20;;;0.20;;
9643;SDS011;4860;50.900;4.720;2023-04-15T03:21:23;0.30;;;0.30;;
9643;SDS011;4860;50.900;4.720;2023-04-15T03:23:50;0.30;;;0.30;;
9643;SDS011;4860;50.900;4.720;2023-04-15T03:26:26;0.30;;;0.30;;
9643;SDS011;4860;50.900;4.720;2023-04-15T03:28:52;0.30;;;0.30;;
9643;SDS011;4860;50.900;4.720;2023-04-15T03:31:19;0.30;;;0.30;;
9643;SDS011;4860;50.900;4.720;2023-04-15T03:33:45;0.30;;;0.30;;
9643;SDS011;4860;50.900;4.720;2023-04-15T03:36:11;0.30;;;0.30;;
9643;SDS011;4860;50.900;4.720;2023-04-15T03:38:37;0.30;;;0.30;;
9643;SDS011;4860;50.900;4.720;2023-04-15T03:41:03;0.30;;;0.30;;
9643;SDS011;4860;50.900;4.720;2023-04-15T03:43:30;0.30;;;0.30;;
9643;SDS011;4860;50.900;4.720;2023-04-15T03:45:56;0.30;;;0.30;;
9643;SDS011;4860;50.900;4.720;2023-04-15T03:48:22;0.30;;;0.30;;
9643;SDS011;4860;50.900;4.720;2023-04-15T03:50:48;0.30;;;0.30;;
9643;SDS011;4860;50.900;4.720;2023-04-15T03:53:14;0.30;;;0.30;;
9643;SDS011;4860;50.900;4.720;2023-04-15T03:55:40;0.30;;;0.30;;
9643;SDS011;4860;50.900;4.720;2023-04-15T03:58:07;0.30;;;0.30;;
9643;SDS011;4860;50.900;4.720;2023-04-15T04:00:37;0.28;;;0.28;;
9643;SDS011;4860;50.900;4.720;2023-04-15T04:03:03;0.20;;;0.20;;
9643;SDS011;4860;50.900;4.720;2023-04-15T04:05:29;0.30;;;0.30;;
9643;SDS011;4860;50.900;4.720;2023-04-15T04:07:56;0.30;;;0.30;;
9643;SDS011;4860;50.900;4.720;2023-04-15T04:10:22;0.30;;;0.30;;
9643;SDS011;4860;50.900;4.720;2023-04-15T04:12:48;0.30;;;0.30;;
9643;SDS011;4860;50.900;4.720;2023-04-15T04:15:14;0.30;;;0.30;;
9643;SDS011;4860;50.900;4.720;2023-04-15T04:17:40;0.30;;;0.30;;
9643;SDS011;4860;50.900;4.720;2023-04-15T04:20:07;0.30;;;0.30;;
9643;SDS011;4860;50.900;4.720;2023-04-15T04:22:37;0.30;;;0.30;;
9643;SDS011;4860;50.900;4.720;2023-04-15T04:25:06;0.30;;;0.30;;
9643;SDS011;4860;50.900;4.720;2023-04-15T04:27:34;0.30;;;0.30;;
9643;SDS011;4860;50.900;4.720;2023-04-15T04:30:00;0.30;;;0.30;;
9643;SDS011;4860;50.900;4.720;2023-04-15T04:32:26;0.30;;;0.30;;
9643;SDS011;4860;50.900;4.720;2023-04-15T04:34:52;0.30;;;0.30;;
9643;SDS011;4860;50.900;4.720;2023-04-15T04:37:18;0.30;;;0.30;;
9643;SDS011;4860;50.900;4.720;2023-04-15T04:39:45;0.30;;;0.30;;
9643;SDS011;4860;50.900;4.720;2023-04-15T04:42:11;0.30;;;0.30;;
9643;SDS011;4860;50.900;4.720;2023-04-15T04:44:40;0.30;;;0.30;;
9643;SDS011;4860;50.900;4.720;2023-04-15T04:47:06;0.30;;;0.30;;
9643;SDS011;4860;50.900;4.720;2023-04-15T04:49:33;0.30;;;0.30;;
9643;SDS011;4860;50.900;4.720;2023-04-15T04:51:59;0.30;;;0.30;;
9643;SDS011;4860;50.900;4.720;2023-04-15T04:54:25;0.30;;;0.30;;
9643;SDS011;4860;50.900;4.720;2023-04-15T04:56:51;0.30;;;0.30;;
9643;SDS011;4860;50.900;4.720;2023-04-15T04:59:18;0.30;;;0.30;;
9643;SDS011;4860;50.900;4.720;2023-04-15T05:01:44;0.30;;;0.30;;
9643;SDS011;4860;50.900;4.720;2023-04-15T05:04:10;0.30;;;0.30;;
9643;SDS011;4860;50.900;4.720;2023-04-15T05:06:36;0.30;;;0.30;;
9643;SDS011;4860;50.900;4.720;2023-04-15T05:09:03;0.30;;;0.30;;
9643;SDS011;4860;50.900;4.720;2023-04-15T05:11:32;0.30;;;0.30;;
9643;SDS011;4860;50.900;4.720;2023-04-15T05:13:58;0.30;;;0.30;;
9643;SDS011;4860;50.900;4.720;2023-04-15T05:16:26;0.30;;;0.30;;
9643;SDS011;4860;50.900;4.720;2023-04-15T05:18:52;0.30;;;0.30;;
9643;SDS011;4860;50.900;4.720;2023-04-15T05:21:30;0.30;;;0.30;;
9643;SDS011;4860;50.900;4.720;2023-04-15T05:23:56;0.30;;;0.30;;
9643;SDS011;4860;50.900;4.720;2023-04-15T05:26:22;0.30;;;0.30;;
9643;SDS011;4860;50.900;4.720;2023-04-15T05:28:49;0.22;;;0.22;;
9643;SDS011;4860;50.900;4.720;2023-04-15T05:31:15;0.30;;;0.30;;
9643;SDS011;4860;50.900;4.720;2023-04-15T05:33:41;0.30;;;0.30;;
9643;SDS011;4860;50.900;4.720;2023-04-15T05:36:07;0.30;;;0.30;;
9643;SDS011;4860;50.900;4.720;2023-04-15T05:38:33;0.30;;;0.30;;
9643;SDS011;4860;50.900;4.720;2023-04-15T05:41:00;0.30;;;0.30;;
9643;SDS011;4860;50.900;4.720;2023-04-15T05:43:26;0.30;;;0.30;;
9643;SDS011;4860;50.900;4.720;2023-04-15T05:45:52;0.30;;;0.30;;
9643;SDS011;4860;50.900;4.720;2023-04-15T05:48:18;0.30;;;0.30;;
9643;SDS011;4860;50.900;4.720;2023-04-15T05:50:44;0.22;;;0.22;;
9643;SDS011;4860;50.900;4.720;2023-04-15T05:53:11;0.30;;;0.30;;
9643;SDS011;4860;50.900;4.720;2023-04-15T05:55:37;0.30;;;0.30;;
9643;SDS011;4860;50.900;4.720;2023-04-15T05:58:03;0.30;;;0.30;;
9643;SDS011;4860;50.900;4.720;2023-04-15T06:00:29;0.30;;;0.30;;
9643;SDS011;4860;50.900;4.720;2023-04-15T06:02:56;0.30;;;0.30;;
9643;SDS011;4860;50.900;4.720;2023-04-15T06:05:23;0.30;;;0.30;;
9643;SDS011;4860;50.900;4.720;2023-04-15T06:07:49;0.30;;;0.30;;
9643;SDS011;4860;50.900;4.720;2023-04-15T06:10:16;0.30;;;0.30;;
9643;SDS011;4860;50.900;4.720;2023-04-15T06:12:42;0.20;;;0.20;;
9643;SDS011;4860;50.900;4.720;2023-04-15T06:15:08;0.30;;;0.30;;
9643;SDS011;4860;50.900;4.720;2023-04-15T06:17:35;0.30;;;0.30;;
9643;SDS011;4860;50.900;4.720;2023-04-15T06:20:02;0.30;;;0.30;;
9643;SDS011;4860;50.900;4.720;2023-04-15T06:22:28;0.30;;;0.30;;
9643;SDS011;4860;50.900;4.720;2023-04-15T06:24:54;0.20;;;0.20;;
9643;SDS011;4860;50.900;4.720;2023-04-15T06:27:20;0.30;;;0.30;;
9643;SDS011;4860;50.900;4.720;2023-04-15T06:29:47;0.28;;;0.28;;
9643;SDS011;4860;50.900;4.720;2023-04-15T06:32:13;0.30;;;0.30;;
9643;SDS011;4860;50.900;4.720;2023-04-15T06:34:39;0.20;;;0.20;;
9643;SDS011;4860;50.900;4.720;2023-04-15T06:37:05;0.20;;;0.20;;
9643;SDS011;4860;50.900;4.720;2023-04-15T06:39:34;0.20;;;0.20;;
9643;SDS011;4860;50.900;4.720;2023-04-15T06:42:00;0.20;;;0.20;;
9643;SDS011;4860;50.900;4.720;2023-04-15T06:44:28;0.20;;;0.20;;
9643;SDS011;4860;50.900;4.720;2023-04-15T06:46:54;0.30;;;0.30;;
9643;SDS011;4860;50.900;4.720;2023-04-15T06:49:20;0.20;;;0.20;;
9643;SDS011;4860;50.900;4.720;2023-04-15T06:51:52;0.20;;;0.20;;
9643;SDS011;4860;50.900;4.720;2023-04-15T06:54:18;0.20;;;0.20;;
9643;SDS011;4860;50.900;4.720;2023-04-15T06:56:44;0.20;;;0.20;;
9643;SDS011;4860;50.900;4.720;2023-04-15T06:59:11;0.22;;;0.22;;
9643;SDS011;4860;50.900;4.720;2023-04-15T07:01:39;0.20;;;0.20;;
9643;SDS011;4860;50.900;4.720;2023-04-15T07:04:06;0.10;;;0.10;;
9643;SDS011;4860;50.900;4.720;2023-04-15T07:06:32;0.30;;;0.30;;
9643;SDS011;4860;50.900;4.720;2023-04-15T07:08:59;0.30;;;0.30;;
9643;SDS011;4860;50.900;4.720;2023-04-15T07:11:27;0.13;;;0.13;;
9643;SDS011;4860;50.900;4.720;2023-04-15T07:13:53;0.20;;;0.20;;
9643;SDS011;4860;50.900;4.720;2023-04-15T07:16:19;0.20;;;0.20;;
9643;SDS011;4860;50.900;4.720;2023-04-15T07:18:46;0.20;;;0.20;;
9643;SDS011;4860;50.900;4.720;2023-04-15T07:21:12;0.20;;;0.20;;
9643;SDS011;4860;50.900;4.720;2023-04-15T07:23:38;0.20;;;0.20;;
9643;SDS011;4860;50.900;4.720;2023-04-15T07:26:05;0.20;;;0.20;;
9643;SDS011;4860;50.900;4.720;2023-04-15T07:28:31;0.20;;;0.20;;
9643;SDS011;4860;50.900;4.720;2023-04-15T07:30:57;0.25;;;0.25;;
9643;SDS011;4860;50.900;4.720;2023-04-15T07:33:23;0.20;;;0.20;;
9643;SDS011;4860;50.900;4.720;2023-04-15T07:35:49;0.17;;;0.17;;
9643;SDS011;4860;50.900;4.720;2023-04-15T07:38:16;0.15;;;0.15;;
9643;SDS011;4860;50.900;4.720;2023-04-15T07:40:42;0.20;;;0.20;;
9643;SDS011;4860;50.900;4.720;2023-04-15T07:43:08;0.20;;;0.20;;
9643;SDS011;4860;50.900;4.720;2023-04-15T07:45:34;0.15;;;0.15;;
9643;SDS011;4860;50.900;4.720;2023-04-15T07:48:01;0.13;;;0.13;;
9643;SDS011;4860;50.900;4.720;2023-04-15T07:50:27;0.20;;;0.20;;
9643;SDS011;4860;50.900;4.720;2023-04-15T07:52:53;0.20;;;0.20;;
9643;SDS011;4860;50.900;4.720;2023-04-15T07:55:20;0.20;;;0.20;;
9643;SDS011;4860;50.900;4.720;2023-04-15T07:57:47;0.13;;;0.13;;
9643;SDS011;4860;50.900;4.720;2023-04-15T08:00:14;0.20;;;0.20;;
9643;SDS011;4860;50.900;4.720;2023-04-15T08:02:40;0.20;;;0.20;;
9643;SDS011;4860;50.900;4.720;2023-04-15T08:05:15;0.20;;;0.20;;
9643;SDS011;4860;50.900;4.720;2023-04-15T08:07:41;0.20;;;0.20;;
9643;SDS011;4860;50.900;4.720;2023-04-15T08:10:07;0.15;;;0.15;;
9643;SDS011;4860;50.900;4.720;2023-04-15T08:12:34;0.10;;;0.10;;
9643;SDS011;4860;50.900;4.720;2023-04-15T08:15:01;0.17;;;0.17;;
9643;SDS011;4860;50.900;4.720;2023-04-15T08:17:27;0.10;;;0.10;;
9643;SDS011;4860;50.900;4.720;2023-04-15T08:19:53;0.17;;;0.17;;
9643;SDS011;4860;50.900;4.720;2023-04-15T08:22:20;0.20;;;0.20;;
9643;SDS011;4860;50.900;4.720;2023-04-15T08:24:46;0.20;;;0.20;;
9643;SDS011;4860;50.900;4.720;2023-04-15T08:27:12;0.20;;;0.20;;
9643;SDS011;4860;50.900;4.720;2023-04-15T08:29:39;0.13;;;0.13;;
9643;SDS011;4860;50.900;4.720;2023-04-15T08:32:05;0.10;;;0.10;;
9643;SDS011;4860;50.900;4.720;2023-04-15T08:34:31;0.10;;;0.10;;
9643;SDS011;4860;50.900;4.720;2023-04-15T08:36:58;0.10;;;0.10;;
9643;SDS011;4860;50.900;4.720;2023-04-15T08:39:25;0.10;;;0.10;;
9643;SDS011;4860;50.900;4.720;2023-04-15T08:42:01;0.10;;;0.10;;
9643;SDS011;4860;50.900;4.720;2023-04-15T08:44:28;0.13;;;0.13;;
9643;SDS011;4860;50.900;4.720;2023-04-15T08:47:01;0.20;;;0.20;;
9643;SDS011;4860;50.900;4.720;2023-04-15T08:49:27;0.10;;;0.10;;
9643;SDS011;4860;50.900;4.720;2023-04-15T08:51:54;0.10;;;0.10;;
9643;SDS011;4860;50.900;4.720;2023-04-15T08:54:24;0.20;;;0.20;;
9643;SDS011;4860;50.900;4.720;2023-04-15T08:56:53;0.10;;;0.10;;
9643;SDS011;4860;50.900;4.720;2023-04-15T08:59:22;0.10;;;0.10;;
9643;SDS011;4860;50.900;4.720;2023-04-15T09:01:49;0.10;;;0.10;;
9643;SDS011;4860;50.900;4.720;2023-04-15T09:04:16;0.10;;;0.10;;
9643;SDS011;4860;50.900;4.720;2023-04-15T09:06:42;0.15;;;0.15;;
9643;SDS011;4860;50.900;4.720;2023-04-15T09:09:08;0.13;;;0.13;;
9643;SDS011;4860;50.900;4.720;2023-04-15T09:11:34;0.10;;;0.10;;
9643;SDS011;4860;50.900;4.720;2023-04-15T09:14:00;0.10;;;0.10;;
9643;SDS011;4860;50.900;4.720;2023-04-15T09:16:27;0.10;;;0.10;;
9643;SDS011;4860;50.900;4.720;2023-04-15T09:18:54;0.10;;;0.10;;
9643;SDS011;4860;50.900;4.720;2023-04-15T09:21:20;0.10;;;0.10;;
9643;SDS011;4860;50.900;4.720;2023-04-15T09:23:57;0.10;;;0.10;;
9643;SDS011;4860;50.900;4.720;2023-04-15T09:26:31;0.10;;;0.10;;
9643;SDS011;4860;50.900;4.720;2023-04-15T09:29:06;0.10;;;0.10;;
9643;SDS011;4860;50.900;4.720;2023-04-15T09:31:33;0.10;;;0.10;;
9643;SDS011;4860;50.900;4.720;2023-04-15T09:34:00;0.10;;;0.10;;
9643;SDS011;4860;50.900;4.720;2023-04-15T09:36:27;0.10;;;0.10;;
9643;SDS011;4860;50.900;4.720;2023-04-15T09:38:55;0.10;;;0.10;;
9643;SDS011;4860;50.900;4.720;2023-04-15T09:41:21;0.10;;;0.10;;
9643;SDS011;4860;50.900;4.720;2023-04-15T09:43:48;0.10;;;0.10;;
9643;SDS011;4860;50.900;4.720;2023-04-15T09:46:14;0.10;;;0.10;;
9643;SDS011;4860;50.900;4.720;2023-04-15T09:48:40;0.10;;;0.10;;
9643;SDS011;4860;50.900;4.720;2023-04-15T09:51:06;0.10;;;0.10;;
9643;SDS011;4860;50.900;4.720;2023-04-15T09:53:34;0.10;;;0.10;;
9643;SDS011;4860;50.900;4.720;2023-04-15T09:56:01;0.10;;;0.10;;
9643;SDS011;4860;50.900;4.720;2023-04-15T09:58:31;0.10;;;0.10;;
9643;SDS011;4860;50.900;4.720;2023-04-15T10:00:58;0.10;;;0.10;;
9643;SDS011;4860;50.900;4.720;2023-04-15T10:03:29;0.05;;;0.05;;
9643;SDS011;4860;50.900;4.720;2023-04-15T10:05:56;0.10;;;0.10;;
9643;SDS011;4860;50.900;4.720;2023-04-15T10:08:24;0.10;;;0.10;;
9643;SDS011;4860;50.900;4.720;2023-04-15T10:10:50;0.10;;;0.10;;
9643;SDS011;4860;50.900;4.720;2023-04-15T10:13:17;0.10;;;0.10;;
9643;SDS011;4860;50.900;4.720;2023-04-15T10:15:46;0.10;;;0.10;;
9643;SDS011;4860;50.900;4.720;2023-04-15T10:18:15;0.20;;;0.20;;
9643;SDS011;4860;50.900;4.720;2023-04-15T10:20:42;0.10;;;0.10;;
9643;SDS011;4860;50.900;4.720;2023-04-15T10:23:09;0.10;;;0.10;;
9643;SDS011;4860;50.900;4.720;2023-04-15T10:25:36;0.10;;;0.10;;
9643;SDS011;4860;50.900;4.720;2023-04-15T10:28:02;0.10;;;0.10;;
9643;SDS011;4860;50.900;4.720;2023-04-15T10:30:29;0.10;;;0.10;;
9643;SDS011;4860;50.900;4.720;2023-04-15T10:32:56;0.10;;;0.10;;
9643;SDS011;4860;50.900;4.720;2023-04-15T10:35:23;0.10;;;0.10;;
9643;SDS011;4860;50.900;4.720;2023-04-15T10:37:49;0.10;;;0.10;;
9643;SDS011;4860;50.900;4.720;2023-04-15T10:40:28;0.10;;;0.10;;
9643;SDS011;4860;50.900;4.720;2023-04-15T10:43:01;0.10;;;0.10;;
9643;SDS011;4860;50.900;4.720;2023-04-15T10:45:31;0.10;;;0.10;;
9643;SDS011;4860;50.900;4.720;2023-04-15T10:47:58;0.10;;;0.10;;
9643;SDS011;4860;50.900;4.720;2023-04-15T10:50:26;0.10;;;0.10;;
9643;SDS011;4860;50.900;4.720;2023-04-15T10:52:54;0.10;;;0.10;;
9643;SDS011;4860;50.900;4.720;2023-04-15T10:55:26;0.10;;;0.10;;
9643;SDS011;4860;50.900;4.720;2023-04-15T10:58:00;0.10;;;0.10;;
9643;SDS011;4860;50.900;4.720;2023-04-15T11:00:30;0.10;;;0.10;;
9643;SDS011;4860;50.900;4.720;2023-04-15T11:02:57;0.10;;;0.10;;
9643;SDS011;4860;50.900;4.720;2023-04-15T11:08:09;0.10;;;0.10;;
9643;SDS011;4860;50.900;4.720;2023-04-15T11:13:02;0.10;;;0.10;;
9643;SDS011;4860;50.900;4.720;2023-04-15T11:17:55;0.10;;;0.10;;
9643;SDS011;4860;50.900;4.720;2023-04-15T11:20:22;0.10;;;0.10;;
9643;SDS011;4860;50.900;4.720;2023-04-15T11:22:48;0.10;;;0.10;;
9643;SDS011;4860;50.900;4.720;2023-04-15T11:25:25;0.10;;;0.10;;
9643;SDS011;4860;50.900;4.720;2023-04-15T11:27:51;0.10;;;0.10;;
9643;SDS011;4860;50.900;4.720;2023-04-15T11:32:48;0.00;;;0.00;;
9643;SDS011;4860;50.900;4.720;2023-04-15T11:35:17;0.10;;;0.10;;
9643;SDS011;4860;50.900;4.720;2023-04-15T11:37:44;0.10;;;0.10;;
9643;SDS011;4860;50.900;4.720;2023-04-15T11:40:11;0.10;;;0.10;;
9643;SDS011;4860;50.900;4.720;2023-04-15T11:42:39;0.10;;;0.10;;
9643;SDS011;4860;50.900;4.720;2023-04-15T11:45:09;0.10;;;0.10;;
9643;SDS011;4860;50.900;4.720;2023-04-15T11:47:36;0.10;;;0.10;;
9643;SDS011;4860;50.900;4.720;2023-04-15T11:53:02;0.10;;;0.10;;
9643;SDS011;4860;50.900;4.720;2023-04-15T11:55:27;0.10;;;0.10;;
9643;SDS011;4860;50.900;4.720;2023-04-15T11:58:10;0.10;;;0.10;;
9643;SDS011;4860;50.900;4.720;2023-04-15T12:00:37;0.10;;;0.10;;
9643;SDS011;4860;50.900;4.720;2023-04-15T12:03:11;0.10;;;0.10;;
9643;SDS011;4860;50.900;4.720;2023-04-15T12:06:01;0.10;;;0.10;;
9643;SDS011;4860;50.900;4.720;2023-04-15T12:08:23;0.10;;;0.10;;
9643;SDS011;4860;50.900;4.720;2023-04-15T12:10:49;0.10;;;0.10;;
9643;SDS011;4860;50.900;4.720;2023-04-15T12:13:15;0.10;;;0.10;;
9643;SDS011;4860;50.900;4.720;2023-04-15T12:15:41;0.10;;;0.10;;
9643;SDS011;4860;50.900;4.720;2023-04-15T12:18:15;0.10;;;0.10;;
9643;SDS011;4860;50.900;4.720;2023-04-15T12:20:45;0.10;;;0.10;;
9643;SDS011;4860;50.900;4.720;2023-04-15T12:23:11;0.10;;;0.10;;
9643;SDS011;4860;50.900;4.720;2023-04-15T12:25:37;0.10;;;0.10;;
9643;SDS011;4860;50.900;4.720;2023-04-15T12:28:10;0.10;;;0.10;;
9643;SDS011;4860;50.900;4.720;2023-04-15T12:30:47;0.10;;;0.10;;
9643;SDS011;4860;50.900;4.720;2023-04-15T12:33:14;0.10;;;0.10;;
9643;SDS011;4860;50.900;4.720;2023-04-15T12:35:40;0.10;;;0.10;;
9643;SDS011;4860;50.900;4.720;2023-04-15T12:38:06;0.10;;;0.10;;
9643;SDS011;4860;50.900;4.720;2023-04-15T12:40:34;0.10;;;0.10;;
9643;SDS011;4860;50.900;4.720;2023-04-15T12:43:01;0.10;;;0.10;;
9643;SDS011;4860;50.900;4.720;2023-04-15T12:45:27;0.10;;;0.10;;
9643;SDS011;4860;50.900;4.720;2023-04-15T12:47:53;0.10;;;0.10;;
9643;SDS011;4860;50.900;4.720;2023-04-15T12:50:20;0.10;;;0.10;;
9643;SDS011;4860;50.900;4.720;2023-04-15T12:52:46;0.10;;;0.10;;
9643;SDS011;4860;50.900;4.720;2023-04-15T12:55:12;0.10;;;0.10;;
9643;SDS011;4860;50.900;4.720;2023-04-15T12:57:38;0.10;;;0.10;;
9643;SDS011;4860;50.900;4.720;2023-04-15T13:00:04;0.10;;;0.10;;
9643;SDS011;4860;50.900;4.720;2023-04-15T13:02:33;0.10;;;0.10;;
9643;SDS011;4860;50.900;4.720;2023-04-15T13:04:59;0.10;;;0.10;;
9643;SDS011;4860;50.900;4.720;2023-04-15T13:07:25;0.10;;;0.10;;
9643;SDS011;4860;50.900;4.720;2023-04-15T13:09:51;0.10;;;0.10;;
9643;SDS011;4860;50.900;4.720;2023-04-15T13:12:17;0.10;;;0.10;;
9643;SDS011;4860;50.900;4.720;2023-04-15T13:14:43;0.10;;;0.10;;
9643;SDS011;4860;50.900;4.720;2023-04-15T13:17:10;0.10;;;0.10;;
9643;SDS011;4860;50.900;4.720;2023-04-15T13:19:37;0.10;;;0.10;;
9643;SDS011;4860;50.900;4.720;2023-04-15T13:22:03;0.10;;;0.10;;
9643;SDS011;4860;50.900;4.720;2023-04-15T13:24:31;0.10;;;0.10;;
9643;SDS011;4860;50.900;4.720;2023-04-15T13:26:57;0.10;;;0.10;;
9643;SDS011;4860;50.900;4.720;2023-04-15T13:29:23;0.10;;;0.10;;
9643;SDS011;4860;50.900;4.720;2023-04-15T13:31:49;0.10;;;0.10;;
9643;SDS011;4860;50.900;4.720;2023-04-15T13:34:16;0.10;;;0.10;;
9643;SDS011;4860;50.900;4.720;2023-04-15T13:36:42;0.10;;;0.10;;
9643;SDS011;4860;50.900;4.720;2023-04-15T13:39:08;0.08;;;0.08;;
9643;SDS011;4860;50.900;4.720;2023-04-15T13:41:34;0.10;;;0.10;;
9643;SDS011;4860;50.900;4.720;2023-04-15T13:44:01;0.10;;;0.10;;
9643;SDS011;4860;50.900;4.720;2023-04-15T13:46:29;0.10;;;0.10;;
9643;SDS011;4860;50.900;4.720;2023-04-15T13:48:55;0.10;;;0.10;;
9643;SDS011;4860;50.900;4.720;2023-04-15T13:51:21;0.10;;;0.10;;
9643;SDS011;4860;50.900;4.720;2023-04-15T13:53:47;0.10;;;0.10;;
9643;SDS011;4860;50.900;4.720;2023-04-15T13:56:13;0.10;;;0.10;;
9643;SDS011;4860;50.900;4.720;2023-04-15T13:58:39;0.10;;;0.10;;
9643;SDS011;4860;50.900;4.720;2023-04-15T14:01:06;0.10;;;0.10;;
9643;SDS011;4860;50.900;4.720;2023-04-15T14:03:32;0.10;;;0.10;;
9643;SDS011;4860;50.900;4.720;2023-04-15T14:05:59;0.10;;;0.10;;
9643;SDS011;4860;50.900;4.720;2023-04-15T14:08:25;0.05;;;0.05;;
9643;SDS011;4860;50.900;4.720;2023-04-15T14:10:51;0.10;;;0.10;;
9643;SDS011;4860;50.900;4.720;2023-04-15T14:13:18;0.10;;;0.10;;
9643;SDS011;4860;50.900;4.720;2023-04-15T14:15:44;0.10;;;0.10;;
9643;SDS011;4860;50.900;4.720;2023-04-15T14:18:10;0.10;;;0.10;;
9643;SDS011;4860;50.900;4.720;2023-04-15T14:20:36;0.10;;;0.10;;
9643;SDS011;4860;50.900;4.720;2023-04-15T14:23:02;0.10;;;0.10;;
9643;SDS011;4860;50.900;4.720;2023-04-15T14:25:29;0.10;;;0.10;;
9643;SDS011;4860;50.900;4.720;2023-04-15T14:27:55;0.10;;;0.10;;
9643;SDS011;4860;50.900;4.720;2023-04-15T14:30:21;0.10;;;0.10;;
9643;SDS011;4860;50.900;4.720;2023-04-15T14:32:47;0.10;;;0.10;;
9643;SDS011;4860;50.900;4.720;2023-04-15T14:35:13;0.10;;;0.10;;
9643;SDS011;4860;50.900;4.720;2023-04-15T14:37:39;0.10;;;0.10;;
9643;SDS011;4860;50.900;4.720;2023-04-15T14:40:06;0.10;;;0.10;;
9643;SDS011;4860;50.900;4.720;2023-04-15T14:42:32;0.10;;;0.10;;
9643;SDS011;4860;50.900;4.720;2023-04-15T14:44:58;0.10;;;0.10;;
9643;SDS011;4860;50.900;4.720;2023-04-15T14:47:24;0.10;;;0.10;;
9643;SDS011;4860;50.900;4.720;2023-04-15T14:49:50;0.00;;;0.00;;
9643;SDS011;4860;50.900;4.720;2023-04-15T14:52:17;0.10;;;0.10;;
9643;SDS011;4860;50.900;4.720;2023-04-15T14:54:43;0.10;;;0.10;;
9643;SDS011;4860;50.900;4.720;2023-04-15T14:57:09;0.10;;;0.10;;
9643;SDS011;4860;50.900;4.720;2023-04-15T14:59:35;0.10;;;0.10;;
9643;SDS011;4860;50.900;4.720;2023-04-15T15:02:01;0.10;;;0.10;;
9643;SDS011;4860;50.900;4.720;2023-04-15T15:04:28;0.10;;;0.10;;
9643;SDS011;4860;50.900;4.720;2023-04-15T15:06:54;0.10;;;0.10;;
9643;SDS011;4860;50.900;4.720;2023-04-15T15:09:20;0.10;;;0.10;;
9643;SDS011;4860;50.900;4.720;2023-04-15T15:11:48;0.10;;;0.10;;
9643;SDS011;4860;50.900;4.720;2023-04-15T15:14:15;0.10;;;0.10;;
9643;SDS011;4860;50.900;4.720;2023-04-15T15:16:41;0.10;;;0.10;;
9643;SDS011;4860;50.900;4.720;2023-04-15T15:19:07;0.10;;;0.10;;
9643;SDS011;4860;50.900;4.720;2023-04-15T15:21:33;0.10;;;0.10;;
9643;SDS011;4860;50.900;4.720;2023-04-15T15:24:00;0.10;;;0.10;;
9643;SDS011;4860;50.900;4.720;2023-04-15T15:26:26;0.10;;;0.10;;